sensor_id;sensor_type;location;lat;lon;timestamp;pressure;altitude;pressure_sealevel;temperature;humidity
73671;BME280;61968;48.178;11.566;2023-01-28T00:00:09;96074.69;;;-0.36;45.44
73671;BME280;61968;48.178;11.566;2023-01-28T00:02:36;96076.00;;;-0.31;45.12
73671;BME280;61968;48.178;11.566;2023-01-28T00:05:03;96081.88;;;-0.29;45.63
73671;BME280;61968;48.178;11.566;2023-01-28T00:07:30;96078.81;;;-0.25;45.07
73671;BME280;61968;48.178;11.566;2023-01-28T00:09:56;96084.63;;;-0.31;45.15
73671;BME280;61968;48.178;11.566;2023-01-28T00:12:23;96078.41;;;-0.38;45.40
73671;BME280;61968;48.178;11.566;2023-01-28T00:14:51;96078.16;;;-0.27;45.46
73671;BME280;61968;48.178;11.566;2023-01-28T00:17:18;96081.13;;;-0.22;45.61
73671;BME280;61968;48.178;11.566;2023-01-28T00:19:44;96073.41;;;-0.31;45.47
73671;BME280;61968;48.178;11.566;2023-01-28T00:22:11;96078.25;;;-0.37;45.71
73671;BME280;61968;48.178;11.566;2023-01-28T00:24:37;96075.19;;;-0.32;45.91
73671;BME280;61968;48.178;11.566;2023-01-28T00:27:04;96072.28;;;-0.29;45.83
73671;BME280;61968;48.178;11.566;2023-01-28T00:29:33;96070.97;;;-0.33;45.23
73671;BME280;61968;48.178;11.566;2023-01-28T00:32:01;96070.66;;;-0.30;45.56
73671;BME280;61968;48.178;11.566;2023-01-28T00:34:27;96074.88;;;-0.29;45.77
73671;BME280;61968;48.178;11.566;2023-01-28T00:36:54;96069.38;;;-0.26;45.64
73671;BME280;61968;48.178;11.566;2023-01-28T00:39:23;96079.13;;;-0.28;45.48
73671;BME280;61968;48.178;11.566;2023-01-28T00:41:50;96079.94;;;-0.27;45.68
73671;BME280;61968;48.178;11.566;2023-01-28T00:44:17;96072.81;;;-0.25;45.60
73671;BME280;61968;48.178;11.566;2023-01-28T00:46:43;96077.34;;;-0.27;44.82
73671;BME280;61968;48.178;11.566;2023-01-28T00:49:11;96080.00;;;-0.19;44.79
73671;BME280;61968;48.178;11.566;2023-01-28T00:51:37;96075.00;;;-0.13;45.02
73671;BME280;61968;48.178;11.566;2023-01-28T00:54:04;96070.00;;;-0.32;44.88
73671;BME280;61968;48.178;11.566;2023-01-28T00:56:31;96075.03;;;-0.30;45.30
73671;BME280;61968;48.178;11.566;2023-01-28T00:58:58;96069.53;;;-0.27;45.27
73671;BME280;61968;48.178;11.566;2023-01-28T01:01:26;96074.25;;;-0.31;45.22
73671;BME280;61968;48.178;11.566;2023-01-28T01:03:53;96076.84;;;-0.31;45.01
73671;BME280;61968;48.178;11.566;2023-01-28T01:06:29;96067.06;;;-0.37;45.43
73671;BME280;61968;48.178;11.566;2023-01-28T01:08:55;96076.16;;;-0.33;45.14
73671;BME280;61968;48.178;11.566;2023-01-28T01:11:22;96072.56;;;-0.40;45.07
73671;BME280;61968;48.178;11.566;2023-01-28T01:13:50;96086.16;;;-0.46;45.27
73671;BME280;61968;48.178;11.566;2023-01-28T01:16:16;96085.88;;;-0.35;45.14
73671;BME280;61968;48.178;11.566;2023-01-28T01:18:43;96087.22;;;-0.31;45.10
73671;BME280;61968;48.178;11.566;2023-01-28T01:21:11;96097.63;;;-0.31;45.00
73671;BME280;61968;48.178;11.566;2023-01-28T01:23:40;96090.38;;;-0.45;45.23
73671;BME280;61968;48.178;11.566;2023-01-28T01:26:06;96078.41;;;-0.38;45.27
73671;BME280;61968;48.178;11.566;2023-01-28T01:28:33;96082.34;;;-0.34;45.15
73671;BME280;61968;48.178;11.566;2023-01-28T01:31:00;96081.66;;;-0.36;44.95
73671;BME280;61968;48.178;11.566;2023-01-28T01:33:27;96087.97;;;-0.39;44.97
73671;BME280;61968;48.178;11.566;2023-01-28T01:35:54;96091.06;;;-0.43;45.40
73671;BME280;61968;48.178;11.566;2023-01-28T01:38:21;96095.34;;;-0.34;45.14
73671;BME280;61968;48.178;11.566;2023-01-28T01:40:49;96092.72;;;-0.34;45.43
73671;BME280;61968;48.178;11.566;2023-01-28T01:43:17;96099.19;;;-0.38;45.30
73671;BME280;61968;48.178;11.566;2023-01-28T01:45:46;96105.06;;;-0.36;45.33
73671;BME280;61968;48.178;11.566;2023-01-28T01:48:17;96098.22;;;-0.37;45.16
73671;BME280;61968;48.178;11.566;2023-01-28T01:50:50;96101.63;;;-0.37;45.11
73671;BME280;61968;48.178;11.566;2023-01-28T01:53:21;96102.66;;;-0.29;45.11
73671;BME280;61968;48.178;11.566;2023-01-28T01:55:52;96100.22;;;-0.31;44.69
73671;BME280;61968;48.178;11.566;2023-01-28T01:58:23;96104.13;;;-0.27;44.53
73671;BME280;61968;48.178;11.566;2023-01-28T02:00:51;96112.91;;;-0.28;44.91
73671;BME280;61968;48.178;11.566;2023-01-28T02:03:22;96108.66;;;-0.29;45.14
73671;BME280;61968;48.178;11.566;2023-01-28T02:05:50;96098.56;;;-0.32;45.42
73671;BME280;61968;48.178;11.566;2023-01-28T02:08:17;96100.72;;;-0.27;44.58
73671;BME280;61968;48.178;11.566;2023-01-28T02:10:49;96104.75;;;-0.33;44.94
73671;BME280;61968;48.178;11.566;2023-01-28T02:13:19;96114.16;;;-0.32;45.08
73671;BME280;61968;48.178;11.566;2023-01-28T02:15:48;96112.16;;;-0.38;45.18
73671;BME280;61968;48.178;11.566;2023-01-28T02:18:15;96113.22;;;-0.31;45.39
73671;BME280;61968;48.178;11.566;2023-01-28T02:20:54;96119.53;;;-0.33;45.40
73671;BME280;61968;48.178;11.566;2023-01-28T02:23:34;96111.88;;;-0.35;44.90
73671;BME280;61968;48.178;11.566;2023-01-28T02:26:40;96110.25;;;-0.36;45.36
73671;BME280;61968;48.178;11.566;2023-01-28T02:29:16;96111.88;;;-0.35;45.01
73671;BME280;61968;48.178;11.566;2023-01-28T02:31:50;96106.38;;;-0.32;45.07
73671;BME280;61968;48.178;11.566;2023-01-28T02:34:24;96108.25;;;-0.42;45.32
73671;BME280;61968;48.178;11.566;2023-01-28T02:36:58;96111.75;;;-0.51;45.18
73671;BME280;61968;48.178;11.566;2023-01-28T02:39:29;96112.06;;;-0.54;45.73
73671;BME280;61968;48.178;11.566;2023-01-28T02:42:03;96119.09;;;-0.47;45.65
73671;BME280;61968;48.178;11.566;2023-01-28T02:44:32;96118.59;;;-0.50;45.59
73671;BME280;61968;48.178;11.566;2023-01-28T02:46:59;96112.13;;;-0.46;45.30
73671;BME280;61968;48.178;11.566;2023-01-28T02:49:45;96116.94;;;-0.33;45.40
73671;BME280;61968;48.178;11.566;2023-01-28T02:52:24;96124.72;;;-0.33;45.51
73671;BME280;61968;48.178;11.566;2023-01-28T02:55:09;96122.94;;;-0.33;44.98
73671;BME280;61968;48.178;11.566;2023-01-28T02:57:44;96117.56;;;-0.31;45.25
73671;BME280;61968;48.178;11.566;2023-01-28T03:00:17;96119.47;;;-0.42;45.53
73671;BME280;61968;48.178;11.566;2023-01-28T03:02:50;96125.13;;;-0.46;45.45
73671;BME280;61968;48.178;11.566;2023-01-28T03:05:24;96122.56;;;-0.38;45.59
73671;BME280;61968;48.178;11.566;2023-01-28T03:07:52;96126.44;;;-0.42;45.53
73671;BME280;61968;48.178;11.566;2023-01-28T03:10:21;96127.84;;;-0.48;45.33
73671;BME280;61968;48.178;11.566;2023-01-28T03:12:50;96132.06;;;-0.47;45.66
73671;BME280;61968;48.178;11.566;2023-01-28T03:15:39;96127.16;;;-0.32;45.28
73671;BME280;61968;48.178;11.566;2023-01-28T03:18:27;96131.78;;;-0.44;45.23
73671;BME280;61968;48.178;11.566;2023-01-28T03:21:16;96132.16;;;-0.39;45.67
73671;BME280;61968;48.178;11.566;2023-01-28T03:24:05;96130.03;;;-0.43;45.48
73671;BME280;61968;48.178;11.566;2023-01-28T03:26:57;96135.94;;;-0.33;45.50
73671;BME280;61968;48.178;11.566;2023-01-28T03:29:46;96140.81;;;-0.30;45.28
73671;BME280;61968;48.178;11.566;2023-01-28T03:32:33;96139.13;;;-0.39;45.65
73671;BME280;61968;48.178;11.566;2023-01-28T03:35:20;96148.97;;;-0.25;45.42
73671;BME280;61968;48.178;11.566;2023-01-28T03:38:07;96138.31;;;-0.40;45.08
73671;BME280;61968;48.178;11.566;2023-01-28T03:40:49;96141.53;;;-0.46;45.53
73671;BME280;61968;48.178;11.566;2023-01-28T03:43:16;96141.97;;;-0.50;45.11
73671;BME280;61968;48.178;11.566;2023-01-28T03:45:42;96141.66;;;-0.47;45.16
73671;BME280;61968;48.178;11.566;2023-01-28T03:48:12;96137.28;;;-0.47;45.29
73671;BME280;61968;48.178;11.566;2023-01-28T03:50:39;96143.66;;;-0.41;45.46
73671;BME280;61968;48.178;11.566;2023-01-28T03:53:05;96139.94;;;-0.39;45.18
73671;BME280;61968;48.178;11.566;2023-01-28T03:55:38;96145.50;;;-0.33;44.83
73671;BME280;61968;48.178;11.566;2023-01-28T03:58:04;96145.84;;;-0.28;45.01
73671;BME280;61968;48.178;11.566;2023-01-28T04:00:31;96147.28;;;-0.34;44.63
73671;BME280;61968;48.178;11.566;2023-01-28T04:02:57;96147.22;;;-0.42;44.81
73671;BME280;61968;48.178;11.566;2023-01-28T04:05:26;96143.94;;;-0.44;44.50
73671;BME280;61968;48.178;11.566;2023-01-28T04:07:53;96150.81;;;-0.43;44.84
73671;BME280;61968;48.178;11.566;2023-01-28T04:10:20;96150.50;;;-0.40;44.55
73671;BME280;61968;48.178;11.566;2023-01-28T04:12:47;96153.03;;;-0.48;44.92
73671;BME280;61968;48.178;11.566;2023-01-28T04:15:14;96154.66;;;-0.47;44.61
73671;BME280;61968;48.178;11.566;2023-01-28T04:17:43;96155.47;;;-0.47;44.76
73671;BME280;61968;48.178;11.566;2023-01-28T04:20:10;96157.63;;;-0.42;44.50
73671;BME280;61968;48.178;11.566;2023-01-28T04:22:38;96162.91;;;-0.52;44.26
73671;BME280;61968;48.178;11.566;2023-01-28T04:25:06;96168.25;;;-0.53;44.71
73671;BME280;61968;48.178;11.566;2023-01-28T04:27:32;96165.94;;;-0.57;44.71
73671;BME280;61968;48.178;11.566;2023-01-28T04:29:59;96162.09;;;-0.52;44.76
73671;BME280;61968;48.178;11.566;2023-01-28T04:32:25;96161.94;;;-0.51;44.70
73671;BME280;61968;48.178;11.566;2023-01-28T04:34:52;96167.00;;;-0.49;44.79
73671;BME280;61968;48.178;11.566;2023-01-28T04:37:18;96171.59;;;-0.43;44.80
73671;BME280;61968;48.178;11.566;2023-01-28T04:39:46;96179.06;;;-0.40;44.64
73671;BME280;61968;48.178;11.566;2023-01-28T04:42:12;96175.19;;;-0.36;44.66
73671;BME280;61968;48.178;11.566;2023-01-28T04:44:39;96172.44;;;-0.35;44.54
73671;BME280;61968;48.178;11.566;2023-01-28T04:47:05;96174.81;;;-0.41;44.61
73671;BME280;61968;48.178;11.566;2023-01-28T04:49:32;96178.03;;;-0.47;44.73
73671;BME280;61968;48.178;11.566;2023-01-28T04:51:58;96178.22;;;-0.41;44.65
73671;BME280;61968;48.178;11.566;2023-01-28T04:54:24;96181.13;;;-0.44;44.49
73671;BME280;61968;48.178;11.566;2023-01-28T04:56:52;96187.97;;;-0.43;44.84
73671;BME280;61968;48.178;11.566;2023-01-28T04:59:20;96187.47;;;-0.46;44.52
73671;BME280;61968;48.178;11.566;2023-01-28T05:01:48;96187.31;;;-0.45;44.84
73671;BME280;61968;48.178;11.566;2023-01-28T05:04:14;96188.41;;;-0.47;44.23
73671;BME280;61968;48.178;11.566;2023-01-28T05:06:41;96184.88;;;-0.46;44.50
73671;BME280;61968;48.178;11.566;2023-01-28T05:09:08;96194.00;;;-0.42;44.63
73671;BME280;61968;48.178;11.566;2023-01-28T05:11:34;96193.56;;;-0.55;45.14
73671;BME280;61968;48.178;11.566;2023-01-28T05:14:02;96192.22;;;-0.60;44.96
73671;BME280;61968;48.178;11.566;2023-01-28T05:16:28;96190.97;;;-0.55;44.90
73671;BME280;61968;48.178;11.566;2023-01-28T05:18:56;96187.41;;;-0.54;44.82
73671;BME280;61968;48.178;11.566;2023-01-28T05:21:22;96194.28;;;-0.45;45.01
73671;BME280;61968;48.178;11.566;2023-01-28T05:23:49;96193.63;;;-0.47;44.97
73671;BME280;61968;48.178;11.566;2023-01-28T05:26:15;96197.56;;;-0.43;44.58
73671;BME280;61968;48.178;11.566;2023-01-28T05:28:42;96204.47;;;-0.52;44.91
73671;BME280;61968;48.178;11.566;2023-01-28T05:31:10;96199.47;;;-0.45;44.59
73671;BME280;61968;48.178;11.566;2023-01-28T05:33:37;96211.78;;;-0.47;44.66
73671;BME280;61968;48.178;11.566;2023-01-28T05:36:03;96211.28;;;-0.51;44.75
73671;BME280;61968;48.178;11.566;2023-01-28T05:38:30;96217.28;;;-0.50;45.14
73671;BME280;61968;48.178;11.566;2023-01-28T05:40:56;96219.59;;;-0.47;44.73
73671;BME280;61968;48.178;11.566;2023-01-28T05:43:23;96218.78;;;-0.48;44.86
73671;BME280;61968;48.178;11.566;2023-01-28T05:45:49;96217.50;;;-0.44;44.60
73671;BME280;61968;48.178;11.566;2023-01-28T05:48:17;96223.25;;;-0.40;44.41
73671;BME280;61968;48.178;11.566;2023-01-28T05:50:45;96224.78;;;-0.47;44.65
73671;BME280;61968;48.178;11.566;2023-01-28T05:53:12;96225.47;;;-0.45;44.79
73671;BME280;61968;48.178;11.566;2023-01-28T05:55:38;96230.97;;;-0.48;44.69
73671;BME280;61968;48.178;11.566;2023-01-28T05:58:05;96230.97;;;-0.48;44.85
73671;BME280;61968;48.178;11.566;2023-01-28T06:00:31;96234.22;;;-0.46;44.69
73671;BME280;61968;48.178;11.566;2023-01-28T06:02:58;96235.56;;;-0.42;44.61
73671;BME280;61968;48.178;11.566;2023-01-28T06:05:25;96238.00;;;-0.41;44.64
73671;BME280;61968;48.178;11.566;2023-01-28T06:07:52;96229.56;;;-0.43;44.64
73671;BME280;61968;48.178;11.566;2023-01-28T06:10:18;96232.06;;;-0.51;44.90
73671;BME280;61968;48.178;11.566;2023-01-28T06:12:45;96233.19;;;-0.53;44.61
73671;BME280;61968;48.178;11.566;2023-01-28T06:15:11;96231.69;;;-0.56;44.69
73671;BME280;61968;48.178;11.566;2023-01-28T06:17:38;96235.13;;;-0.55;45.03
73671;BME280;61968;48.178;11.566;2023-01-28T06:20:05;96237.56;;;-0.54;44.81
73671;BME280;61968;48.178;11.566;2023-01-28T06:22:34;96244.75;;;-0.48;45.15
73671;BME280;61968;48.178;11.566;2023-01-28T06:25:00;96239.44;;;-0.46;44.80
73671;BME280;61968;48.178;11.566;2023-01-28T06:27:27;96243.13;;;-0.49;44.85
73671;BME280;61968;48.178;11.566;2023-01-28T06:29:53;96243.78;;;-0.47;44.92
73671;BME280;61968;48.178;11.566;2023-01-28T06:32:20;96259.03;;;-0.52;44.87
73671;BME280;61968;48.178;11.566;2023-01-28T06:34:46;96252.84;;;-0.51;45.25
73671;BME280;61968;48.178;11.566;2023-01-28T06:37:13;96258.44;;;-0.46;44.84
73671;BME280;61968;48.178;11.566;2023-01-28T06:39:41;96252.25;;;-0.45;45.17
73671;BME280;61968;48.178;11.566;2023-01-28T06:42:08;96259.38;;;-0.47;44.97
73671;BME280;61968;48.178;11.566;2023-01-28T06:44:34;96268.66;;;-0.44;45.11
73671;BME280;61968;48.178;11.566;2023-01-28T06:47:00;96263.75;;;-0.47;44.96
73671;BME280;61968;48.178;11.566;2023-01-28T06:49:27;96268.13;;;-0.48;45.01
73671;BME280;61968;48.178;11.566;2023-01-28T06:51:53;96269.84;;;-0.39;45.07
73671;BME280;61968;48.178;11.566;2023-01-28T06:54:20;96270.00;;;-0.40;44.64
73671;BME280;61968;48.178;11.566;2023-01-28T06:56:48;96263.97;;;-0.41;45.14
73671;BME280;61968;48.178;11.566;2023-01-28T06:59:14;96266.88;;;-0.26;44.76
73671;BME280;61968;48.178;11.566;2023-01-28T07:01:41;96267.97;;;-0.28;44.47
73671;BME280;61968;48.178;11.566;2023-01-28T07:04:07;96278.44;;;-0.38;44.90
73671;BME280;61968;48.178;11.566;2023-01-28T07:06:34;96274.16;;;-0.47;45.34
73671;BME280;61968;48.178;11.566;2023-01-28T07:09:00;96279.63;;;-0.50;45.05
73671;BME280;61968;48.178;11.566;2023-01-28T07:11:26;96284.03;;;-0.51;45.52
73671;BME280;61968;48.178;11.566;2023-01-28T07:13:54;96278.41;;;-0.46;45.50
73671;BME280;61968;48.178;11.566;2023-01-28T07:16:21;96281.28;;;-0.49;45.16
73671;BME280;61968;48.178;11.566;2023-01-28T07:18:47;96283.59;;;-0.46;45.34
73671;BME280;61968;48.178;11.566;2023-01-28T07:21:15;96285.00;;;-0.34;44.90
73671;BME280;61968;48.178;11.566;2023-01-28T07:23:41;96290.78;;;-0.40;45.25
73671;BME280;61968;48.178;11.566;2023-01-28T07:26:07;96285.59;;;-0.40;45.35
73671;BME280;61968;48.178;11.566;2023-01-28T07:28:34;96293.53;;;-0.42;45.17
73671;BME280;61968;48.178;11.566;2023-01-28T07:31:02;96294.50;;;-0.43;45.34
73671;BME280;61968;48.178;11.566;2023-01-28T07:33:28;96294.94;;;-0.47;45.33
73671;BME280;61968;48.178;11.566;2023-01-28T07:35:54;96296.28;;;-0.43;45.67
73671;BME280;61968;48.178;11.566;2023-01-28T07:38:21;96301.22;;;-0.50;45.47
73671;BME280;61968;48.178;11.566;2023-01-28T07:40:47;96301.91;;;-0.48;45.65
73671;BME280;61968;48.178;11.566;2023-01-28T07:43:14;96306.97;;;-0.46;45.80
73671;BME280;61968;48.178;11.566;2023-01-28T07:45:40;96310.97;;;-0.52;45.96
73671;BME280;61968;48.178;11.566;2023-01-28T07:48:10;96316.63;;;-0.39;45.22
73671;BME280;61968;48.178;11.566;2023-01-28T07:50:37;96320.31;;;-0.41;45.51
73671;BME280;61968;48.178;11.566;2023-01-28T07:53:06;96316.78;;;-0.40;45.42
73671;BME280;61968;48.178;11.566;2023-01-28T07:55:32;96327.22;;;-0.32;45.37
73671;BME280;61968;48.178;11.566;2023-01-28T07:58:01;96322.72;;;-0.30;45.44
73671;BME280;61968;48.178;11.566;2023-01-28T08:00:29;96323.00;;;-0.33;45.46
73671;BME280;61968;48.178;11.566;2023-01-28T08:02:57;96327.53;;;-0.35;45.46
73671;BME280;61968;48.178;11.566;2023-01-28T08:05:37;96326.59;;;-0.34;45.37
73671;BME280;61968;48.178;11.566;2023-01-28T08:08:05;96335.53;;;-0.28;45.37
73671;BME280;61968;48.178;11.566;2023-01-28T08:10:32;96335.78;;;-0.22;45.12
73671;BME280;61968;48.178;11.566;2023-01-28T08:12:58;96335.50;;;-0.19;45.30
73671;BME280;61968;48.178;11.566;2023-01-28T08:15:25;96339.63;;;-0.26;45.28
73671;BME280;61968;48.178;11.566;2023-01-28T08:17:53;96338.00;;;-0.27;45.24
73671;BME280;61968;48.178;11.566;2023-01-28T08:20:19;96334.72;;;-0.29;45.41
73671;BME280;61968;48.178;11.566;2023-01-28T08:22:47;96345.38;;;-0.22;45.21
73671;BME280;61968;48.178;11.566;2023-01-28T08:25:14;96345.88;;;-0.37;45.25
73671;BME280;61968;48.178;11.566;2023-01-28T08:27:40;96351.66;;;-0.43;45.89
73671;BME280;61968;48.178;11.566;2023-01-28T08:30:08;96353.97;;;-0.40;45.67
73671;BME280;61968;48.178;11.566;2023-01-28T08:32:34;96353.66;;;-0.37;45.50
73671;BME280;61968;48.178;11.566;2023-01-28T08:35:01;96352.84;;;-0.37;45.73
73671;BME280;61968;48.178;11.566;2023-01-28T08:37:27;96353.97;;;-0.40;45.79
73671;BME280;61968;48.178;11.566;2023-01-28T08:39:55;96358.19;;;-0.39;45.52
73671;BME280;61968;48.178;11.566;2023-01-28T08:42:22;96364.44;;;-0.31;45.42
73671;BME280;61968;48.178;11.566;2023-01-28T08:44:48;96360.88;;;-0.30;45.68
73671;BME280;61968;48.178;11.566;2023-01-28T08:47:14;96359.91;;;-0.29;45.61
73671;BME280;61968;48.178;11.566;2023-01-28T08:49:41;96357.31;;;-0.29;45.86
73671;BME280;61968;48.178;11.566;2023-01-28T08:52:07;96363.03;;;-0.26;45.73
73671;BME280;61968;48.178;11.566;2023-01-28T08:54:35;96364.28;;;-0.30;45.71
73671;BME280;61968;48.178;11.566;2023-01-28T08:57:03;96361.09;;;-0.24;45.60
73671;BME280;61968;48.178;11.566;2023-01-28T08:59:29;96362.53;;;-0.12;45.30
73671;BME280;61968;48.178;11.566;2023-01-28T09:01:56;96367.13;;;-0.05;44.83
73671;BME280;61968;48.178;11.566;2023-01-28T09:04:22;96368.31;;;-0.18;44.97
73671;BME280;61968;48.178;11.566;2023-01-28T09:06:48;96366.22;;;-0.32;45.56
73671;BME280;61968;48.178;11.566;2023-01-28T09:09:15;96372.59;;;-0.26;45.35
73671;BME280;61968;48.178;11.566;2023-01-28T09:11:41;96377.38;;;-0.22;45.30
73671;BME280;61968;48.178;11.566;2023-01-28T09:14:09;96375.88;;;-0.24;45.24
73671;BME280;61968;48.178;11.566;2023-01-28T09:16:35;96373.50;;;-0.18;45.45
73671;BME280;61968;48.178;11.566;2023-01-28T09:19:02;96369.59;;;-0.22;45.25
73671;BME280;61968;48.178;11.566;2023-01-28T09:21:28;96373.50;;;-0.18;45.12
73671;BME280;61968;48.178;11.566;2023-01-28T09:23:55;96374.50;;;-0.01;44.77
73671;BME280;61968;48.178;11.566;2023-01-28T09:26:22;96375.22;;;-0.08;44.89
73671;BME280;61968;48.178;11.566;2023-01-28T09:28:48;96380.94;;;-0.05;45.05
73671;BME280;61968;48.178;11.566;2023-01-28T09:31:16;96387.13;;;-0.06;44.67
73671;BME280;61968;48.178;11.566;2023-01-28T09:33:43;96381.91;;;-0.06;44.96
73671;BME280;61968;48.178;11.566;2023-01-28T09:36:10;96377.75;;;0.01;44.86
73671;BME280;61968;48.178;11.566;2023-01-28T09:38:36;96376.22;;;0.08;44.41
73671;BME280;61968;48.178;11.566;2023-01-28T09:41:14;96373.75;;;0.07;44.31
73671;BME280;61968;48.178;11.566;2023-01-28T09:43:56;96374.81;;;-0.04;44.97
73671;BME280;61968;48.178;11.566;2023-01-28T09:46:30;96376.72;;;-0.06;45.04
73671;BME280;61968;48.178;11.566;2023-01-28T09:48:57;96379.41;;;0.02;44.74
73671;BME280;61968;48.178;11.566;2023-01-28T09:51:31;96374.72;;;0.06;44.36
73671;BME280;61968;48.178;11.566;2023-01-28T09:54:00;96372.63;;;-0.08;44.26
73671;BME280;61968;48.178;11.566;2023-01-28T09:56:30;96374.72;;;-0.12;44.52
73671;BME280;61968;48.178;11.566;2023-01-28T09:58:57;96374.63;;;-0.02;44.75
73671;BME280;61968;48.178;11.566;2023-01-28T10:01:37;96375.75;;;0.13;45.06
73671;BME280;61968;48.178;11.566;2023-01-28T10:04:15;96378.22;;;0.32;45.57
73671;BME280;61968;48.178;11.566;2023-01-28T10:06:56;96375.44;;;0.34;44.82
73671;BME280;61968;48.178;11.566;2023-01-28T10:09:34;96373.22;;;0.39;43.83
73671;BME280;61968;48.178;11.566;2023-01-28T10:12:20;96360.53;;;0.36;44.29
73671;BME280;61968;48.178;11.566;2023-01-28T10:14:57;96362.66;;;0.41;43.60
73671;BME280;61968;48.178;11.566;2023-01-28T10:17:37;96361.03;;;0.40;43.93
73671;BME280;61968;48.178;11.566;2023-01-28T10:20:06;96366.97;;;0.32;43.47
73671;BME280;61968;48.178;11.566;2023-01-28T10:22:45;96364.03;;;0.27;43.78
73671;BME280;61968;48.178;11.566;2023-01-28T10:25:17;96363.25;;;0.34;43.63
73671;BME280;61968;48.178;11.566;2023-01-28T10:27:46;96357.63;;;0.39;44.15
73671;BME280;61968;48.178;11.566;2023-01-28T10:30:18;96372.84;;;0.52;43.54
73671;BME280;61968;48.178;11.566;2023-01-28T10:32:51;96364.03;;;0.53;43.62
73671;BME280;61968;48.178;11.566;2023-01-28T10:35:18;96361.44;;;0.53;42.82
73671;BME280;61968;48.178;11.566;2023-01-28T10:37:45;96364.03;;;0.53;43.18
73671;BME280;61968;48.178;11.566;2023-01-28T10:40:14;96359.06;;;0.60;42.94
73671;BME280;61968;48.178;11.566;2023-01-28T10:42:41;96358.09;;;0.61;43.45
73671;BME280;61968;48.178;11.566;2023-01-28T10:45:15;96357.19;;;0.70;42.53
73671;BME280;61968;48.178;11.566;2023-01-28T10:47:46;96359.63;;;0.71;42.68
73671;BME280;61968;48.178;11.566;2023-01-28T10:50:16;96348.09;;;0.74;42.00
73671;BME280;61968;48.178;11.566;2023-01-28T10:52:52;96355.69;;;0.67;42.45
73671;BME280;61968;48.178;11.566;2023-01-28T10:55:19;96359.22;;;0.58;42.38
73671;BME280;61968;48.178;11.566;2023-01-28T10:57:47;96360.50;;;0.54;42.12
73671;BME280;61968;48.178;11.566;2023-01-28T11:00:22;96358.50;;;0.48;42.56
73671;BME280;61968;48.178;11.566;2023-01-28T11:02:50;96362.13;;;0.55;42.74
73671;BME280;61968;48.178;11.566;2023-01-28T11:05:19;96353.72;;;0.61;42.51
73671;BME280;61968;48.178;11.566;2023-01-28T11:07:47;96353.91;;;0.68;42.73
73671;BME280;61968;48.178;11.566;2023-01-28T11:10:29;96359.13;;;0.68;42.74
73671;BME280;61968;48.178;11.566;2023-01-28T11:12:59;96348.81;;;0.84;42.65
73671;BME280;61968;48.178;11.566;2023-01-28T11:15:27;96348.91;;;1.00;41.17
73671;BME280;61968;48.178;11.566;2023-01-28T11:17:57;96348.09;;;1.00;40.50
73671;BME280;61968;48.178;11.566;2023-01-28T11:20:27;96353.84;;;0.86;41.32
73671;BME280;61968;48.178;11.566;2023-01-28T11:22:55;96350.75;;;0.82;41.97
73671;BME280;61968;48.178;11.566;2023-01-28T11:25:27;96355.66;;;0.85;41.28
73671;BME280;61968;48.178;11.566;2023-01-28T11:27:55;96358.50;;;0.74;40.98
73671;BME280;61968;48.178;11.566;2023-01-28T11:30:24;96357.28;;;0.60;41.31
73671;BME280;61968;48.178;11.566;2023-01-28T11:32:57;96357.50;;;0.67;41.11
73671;BME280;61968;48.178;11.566;2023-01-28T11:35:25;96354.16;;;0.83;41.07
73671;BME280;61968;48.178;11.566;2023-01-28T11:37:54;96358.06;;;0.78;40.75
73671;BME280;61968;48.178;11.566;2023-01-28T11:40:21;96363.31;;;0.87;41.31
73671;BME280;61968;48.178;11.566;2023-01-28T11:42:50;96353.25;;;0.92;39.59
73671;BME280;61968;48.178;11.566;2023-01-28T11:45:19;96356.78;;;0.83;40.09
73671;BME280;61968;48.178;11.566;2023-01-28T11:47:57;96355.59;;;0.77;41.02
73671;BME280;61968;48.178;11.566;2023-01-28T11:50:35;96353.34;;;0.82;41.24
73671;BME280;61968;48.178;11.566;2023-01-28T11:56:06;96346.66;;;0.79;41.30
73671;BME280;61968;48.178;11.566;2023-01-28T11:58:44;96352.09;;;0.60;40.96
73671;BME280;61968;48.178;11.566;2023-01-28T12:01:20;96347.59;;;0.70;41.14
73671;BME280;61968;48.178;11.566;2023-01-28T12:04:19;96345.66;;;0.72;41.30
73671;BME280;61968;48.178;11.566;2023-01-28T12:06:57;96344.59;;;0.65;41.86
73671;BME280;61968;48.178;11.566;2023-01-28T12:09:32;96344.59;;;0.65;41.11
73671;BME280;61968;48.178;11.566;2023-01-28T12:12:14;96347.28;;;0.73;41.13
73671;BME280;61968;48.178;11.566;2023-01-28T12:15:07;96346.47;;;0.73;42.01
73671;BME280;61968;48.178;11.566;2023-01-28T12:17:48;96342.06;;;0.73;41.90
73671;BME280;61968;48.178;11.566;2023-01-28T12:20:24;96343.69;;;0.74;42.25
73671;BME280;61968;48.178;11.566;2023-01-28T12:23:04;96344.53;;;0.75;42.36
73671;BME280;61968;48.178;11.566;2023-01-28T12:25:49;96351.81;;;0.71;42.49
73671;BME280;61968;48.178;11.566;2023-01-28T12:28:23;96344.38;;;0.76;42.57
73671;BME280;61968;48.178;11.566;2023-01-28T12:31:11;96340.94;;;0.76;42.27
73671;BME280;61968;48.178;11.566;2023-01-28T12:33:53;96347.75;;;0.69;42.13
73671;BME280;61968;48.178;11.566;2023-01-28T12:36:34;96352.59;;;0.64;42.88
73671;BME280;61968;48.178;11.566;2023-01-28T12:39:14;96350.19;;;0.70;42.57
73671;BME280;61968;48.178;11.566;2023-01-28T12:41:47;96350.72;;;0.56;42.30
73671;BME280;61968;48.178;11.566;2023-01-28T12:44:21;96358.22;;;0.59;42.47
73671;BME280;61968;48.178;11.566;2023-01-28T12:46:51;96354.50;;;0.62;42.54
73671;BME280;61968;48.178;11.566;2023-01-28T12:49:22;96359.88;;;0.60;42.31
73671;BME280;61968;48.178;11.566;2023-01-28T12:51:58;96363.81;;;0.64;41.97
73671;BME280;61968;48.178;11.566;2023-01-28T12:54:32;96352.22;;;0.58;41.91
73671;BME280;61968;48.178;11.566;2023-01-28T12:57:00;96356.91;;;0.55;42.13
73671;BME280;61968;48.178;11.566;2023-01-28T12:59:29;96359.00;;;0.51;42.36
73671;BME280;61968;48.178;11.566;2023-01-28T13:02:12;96352.44;;;0.47;41.61
73671;BME280;61968;48.178;11.566;2023-01-28T13:04:45;96355.63;;;0.59;41.95
73671;BME280;61968;48.178;11.566;2023-01-28T13:07:20;96354.00;;;0.58;42.00
73671;BME280;61968;48.178;11.566;2023-01-28T13:09:52;96350.13;;;0.62;41.72